Time;durP1;ratioP1;P1;durP2;ratioP2;P2;SDS_P1;SDS_P2;PMS_P1;PMS_P2;Temp;Humidity;BMP_temperature;BMP_pressure;BME280_temperature;BME280_humidity;BME280_pressure;Samples;Min_cycle;Max_cycle;Signal;HPM_P1;HPM_P2
2023/01/12 00:00:34;;;;;;;35.42;6.47;;;11.20;99.90;;;;;;4991991;28;20412;-65
2023/01/12 00:03:00;;;;;;;35.40;6.03;;;11.00;99.90;;;;;;4991910;28;20072;-65
2023/01/12 00:05:25;;;;;;;28.23;5.88;;;11.00;99.90;;;;;;4992298;28;20160;-65
2023/01/12 00:07:51;;;;;;;33.38;5.70;;;11.10;99.90;;;;;;4991960;28;20030;-65
2023/01/12 00:10:16;;;;;;;36.28;6.53;;;11.30;99.90;;;;;;4991935;28;20038;-65
2023/01/12 00:12:42;;;;;;;28.20;5.13;;;11.30;99.90;;;;;;4992370;28;20050;-65
2023/01/12 00:15:08;;;;;;;22.52;5.20;;;11.40;99.90;;;;;;4991976;28;20053;-65
2023/01/12 00:17:33;;;;;;;25.15;4.88;;;11.30;99.90;;;;;;4991881;28;20128;-65
2023/01/12 00:19:59;;;;;;;28.83;5.95;;;11.30;99.90;;;;;;4992256;28;20101;-65
2023/01/12 00:22:24;;;;;;;31.33;5.93;;;11.30;99.90;;;;;;4991975;28;20412;-65
2023/01/12 00:24:51;;;;;;;27.10;5.25;;;11.20;99.90;;;;;;4990719;28;20488;-65
2023/01/12 00:27:20;;;;;;;30.95;5.47;;;11.30;99.90;;;;;;4991629;28;20423;-65
2023/01/12 00:29:47;;;;;;;29.88;5.65;;;11.40;99.90;;;;;;4990689;28;20108;-65
2023/01/12 00:32:18;;;;;;;24.88;4.93;;;11.50;99.90;;;;;;4991937;28;20034;-65
2023/01/12 00:34:44;;;;;;;26.48;5.72;;;11.40;99.90;;;;;;4991602;28;20496;-65
2023/01/12 00:37:10;;;;;;;29.58;5.75;;;11.20;99.90;;;;;;4990794;28;20053;-65
2023/01/12 00:39:36;;;;;;;28.92;5.35;;;10.90;99.90;;;;;;4991481;28;20043;-65
2023/01/12 00:47:31;;;;;;;32.45;5.53;;;11.20;99.90;;;;;;4995701;28;20475;-65
2023/01/12 00:49:57;;;;;;;40.13;6.22;;;11.40;99.90;;;;;;4995374;28;20042;-65
2023/01/12 00:52:23;;;;;;;33.47;5.35;;;11.60;99.90;;;;;;4993871;28;20504;-65
2023/01/12 00:54:48;;;;;;;31.17;5.70;;;11.60;99.90;;;;;;4995693;28;20042;-65
2023/01/12 00:57:16;;;;;;;35.17;5.63;;;11.40;99.90;;;;;;4995226;28;20031;-65
2023/01/12 00:59:43;;;;;;;37.20;6.90;;;11.40;1.00;;;;;;4995258;28;20117;-65
2023/01/12 01:02:09;;;;;;;36.20;7.13;;;11.00;1.00;;;;;;4995368;28;20054;-65
2023/01/12 01:04:35;;;;;;;40.00;6.90;;;11.40;1.00;;;;;;4993502;28;20042;-65
2023/01/12 01:07:01;;;;;;;38.30;6.65;;;11.30;1.00;;;;;;4994976;28;20106;-65
2023/01/12 01:09:28;;;;;;;36.13;7.20;;;11.50;1.00;;;;;;4994785;28;20084;-65
2023/01/12 01:11:53;;;;;;;36.63;6.40;;;11.70;1.00;;;;;;4995023;28;20034;-65
2023/01/12 01:14:19;;;;;;;42.13;6.43;;;11.60;1.00;;;;;;4995042;28;20041;-65
2023/01/12 01:16:44;;;;;;;28.38;5.68;;;11.30;1.00;;;;;;4993928;28;20100;-65
2023/01/12 01:19:10;;;;;;;40.55;7.38;;;11.10;1.00;;;;;;4994835;28;20042;-65
2023/01/12 01:21:36;;;;;;;29.52;5.85;;;11.20;1.00;;;;;;4994517;28;20038;-65
2023/01/12 01:24:01;;;;;;;38.47;6.05;;;11.40;15.30;;;;;;4994709;28;20061;-65
2023/01/12 01:26:29;;;;;;;34.13;6.63;;;11.30;94.70;;;;;;4994686;28;20045;-65
2023/01/12 01:28:55;;;;;;;28.73;6.38;;;11.70;99.90;;;;;;4994164;28;20045;-65
2023/01/12 01:31:23;;;;;;;29.85;5.75;;;11.60;99.90;;;;;;4993479;28;20046;-65
2023/01/12 01:33:49;;;;;;;36.20;6.50;;;11.80;46.50;;;;;;4994709;28;20558;-65
2023/01/12 01:36:16;;;;;;;31.08;6.10;;;11.40;45.40;;;;;;4994424;28;20125;-65
2023/01/12 01:38:46;;;;;;;42.35;6.07;;;11.40;75.50;;;;;;4994226;28;20034;-65
2023/01/12 01:41:18;;;;;;;31.67;6.57;;;11.40;39.70;;;;;;4993165;28;20404;-65
2023/01/12 01:43:51;;;;;;;43.95;8.13;;;11.10;99.90;;;;;;4994326;28;20086;-65
2023/01/12 01:46:32;;;;;;;27.50;6.18;;;11.50;99.90;;;;;;4994375;28;20030;-66
2023/01/12 01:49:20;;;;;;;37.78;6.47;;;12.00;99.90;;;;;;5009569;28;20045;-65
2023/01/12 01:51:45;;;;;;;32.72;5.80;;;11.60;99.90;;;;;;4994101;28;20126;-65
2023/01/12 01:54:12;;;;;;;29.17;5.00;;;11.50;99.90;;;;;;4994270;28;20129;-65
2023/01/12 01:56:38;;;;;;;33.00;5.35;;;11.80;99.90;;;;;;4994157;28;20100;-65
2023/01/12 01:59:27;;;;;;;30.92;6.15;;;11.60;99.90;;;;;;4994141;28;20515;-65
2023/01/12 02:01:53;;;;;;;37.03;6.07;;;11.40;99.90;;;;;;4992769;28;20042;-65
2023/01/12 02:04:19;;;;;;;36.70;6.28;;;11.80;99.90;;;;;;4993951;28;20504;-65
2023/01/12 02:06:45;;;;;;;45.70;6.80;;;11.80;1.00;;;;;;4993916;28;20043;-65
2023/01/12 02:09:17;;;;;;;39.38;6.55;;;11.60;21.90;;;;;;4993794;28;20049;-65
2023/01/12 02:17:12;;;;;;;36.53;6.70;;;11.90;47.60;;;;;;4994002;28;20097;-65
2023/01/12 02:19:46;;;;;;;27.50;5.53;;;11.20;4.90;;;;;;4993652;28;20121;-65
2023/01/12 02:22:39;;;;;;;38.35;7.05;;;11.10;99.90;;;;;;4993799;28;20038;-65
2023/01/12 02:25:47;;;;;;;31.33;6.30;;;12.10;1.00;;;;;;4992714;28;20050;-65
2023/01/12 02:28:16;;;;;;;37.13;6.97;;;11.70;1.00;;;;;;4993450;28;20042;-65
2023/01/12 02:30:55;;;;;;;41.80;8.10;;;11.80;1.00;;;;;;4992110;28;20604;-65
2023/01/12 02:33:38;;;;;;;24.40;4.95;;;11.60;1.00;;;;;;4992820;28;20492;-65
2023/01/12 02:36:18;;;;;;;39.10;6.70;;;11.50;1.00;;;;;;4993318;28;20038;-65
2023/01/12 02:38:59;;;;;;;35.85;6.30;;;11.90;1.00;;;;;;4982928;28;20378;-65
2023/01/12 02:44:58;;;;;;;30.75;5.15;;;11.30;99.90;;;;;;4973835;28;20051;-64
2023/01/12 02:47:47;;;;;;;48.58;6.97;;;12.00;99.90;;;;;;4973824;28;20039;-64
2023/01/12 02:50:30;;;;;;;36.35;6.93;;;12.60;99.90;;;;;;4984628;28;20043;-64
2023/01/12 02:53:06;;;;;;;32.22;5.47;;;12.20;99.90;;;;;;4993018;28;20046;-64
2023/01/12 02:55:33;;;;;;;32.00;6.18;;;11.50;99.90;;;;;;4993206;28;20045;-64
2023/01/12 02:58:01;;;;;;;27.67;6.07;;;11.60;99.90;;;;;;4992435;28;20092;-64
2023/01/12 03:00:28;;;;;;;29.33;5.47;;;13.20;99.90;;;;;;4992853;28;20042;-64
2023/01/12 03:02:53;;;;;;;23.02;4.85;;;11.90;99.90;;;;;;4993226;28;20077;-64
2023/01/12 03:05:19;;;;;;;28.95;5.60;;;11.70;1.00;;;;;;4992714;28;20050;-64
2023/01/12 03:07:54;;;;;;;22.27;4.10;;;11.80;1.00;;;;;;4992245;28;20034;-64
2023/01/12 03:10:38;;;;;;;33.03;6.07;;;12.50;1.00;;;;;;4992877;28;20399;-64
2023/01/12 03:13:08;;;;;;;24.23;4.32;;;12.80;1.00;;;;;;4992852;28;20290;-64
2023/01/12 03:15:37;;;;;;;35.08;6.70;;;12.60;1.00;;;;;;4991744;28;20056;-64
2023/01/12 03:18:10;;;;;;;29.90;6.00;;;12.60;1.00;;;;;;4992955;28;20385;-64
2023/01/12 03:20:42;;;;;;;28.85;6.30;;;11.70;99.90;;;;;;4992826;28;20406;-64
2023/01/12 03:23:12;;;;;;;37.80;7.45;;;11.60;99.90;;;;;;4992470;28;20038;-65
2023/01/12 03:25:41;;;;;;;34.80;6.05;;;12.80;1.00;;;;;;4992571;28;20042;-65
2023/01/12 03:28:08;;;;;;;36.78;6.72;;;12.00;1.00;;;;;;4992292;28;20073;-64
2023/01/12 03:30:42;;;;;;;37.08;6.40;;;13.40;1.00;;;;;;4992392;28;20080;-64
2023/01/12 03:33:08;;;;;;;32.72;6.00;;;11.90;1.00;;;;;;4992701;28;20100;-64
2023/01/12 03:35:40;;;;;;;33.47;6.15;;;11.90;1.00;;;;;;4992489;28;20091;-65
2023/01/12 03:38:40;;;;;;;29.02;5.63;;;12.50;99.90;;;;;;4990879;28;20105;-65
2023/01/12 03:41:12;;;;;;;27.15;4.82;;;11.80;99.90;;;;;;4932527;28;20059;-65
2023/01/12 03:43:42;;;;;;;36.53;6.50;;;11.90;99.90;;;;;;4971876;28;20039;-65
2023/01/12 03:46:18;;;;;;;23.05;4.15;;;12.00;1.00;;;;;;4973461;28;20121;-65
2023/01/12 03:48:58;;;;;;;23.30;4.47;;;12.40;1.00;;;;;;4972040;28;20042;-65
2023/01/12 03:51:37;;;;;;;26.05;4.75;;;13.00;1.00;;;;;;4973115;28;20047;-64
2023/01/12 03:54:05;;;;;;;17.45;4.05;;;11.90;99.90;;;;;;4972962;28;20089;-65
2023/01/12 03:56:35;;;;;;;16.08;4.10;;;12.70;99.90;;;;;;4984405;28;20508;-64
2023/01/12 03:59:01;;;;;;;20.17;3.78;;;12.20;99.90;;;;;;4992106;28;20042;-64
2023/01/12 04:01:27;;;;;;;15.07;3.13;;;11.70;99.90;;;;;;4992043;28;20042;-64
2023/01/12 04:03:52;;;;;;;14.68;3.22;;;12.30;61.00;;;;;;4992056;28;20353;-64
2023/01/12 04:06:18;;;;;;;16.63;3.97;;;12.10;99.90;;;;;;4992184;28;20038;-64
2023/01/12 04:08:44;;;;;;;19.30;3.50;;;11.80;99.90;;;;;;4992106;28;20085;-65
2023/01/12 04:13:53;;;;;;;16.50;3.63;;;12.10;99.90;;;;;;4992013;28;20046;-65
2023/01/12 04:16:19;;;;;;;16.83;3.45;;;11.90;99.90;;;;;;4992162;28;20042;-65
2023/01/12 04:18:44;;;;;;;18.10;3.05;;;12.00;99.90;;;;;;4992127;28;20066;-65
2023/01/12 04:22:41;;;;;;;10.35;3.38;;;12.50;99.90;;;;;;4995531;28;20074;-65
2023/01/12 04:23:56;;;;;;;13.45;2.90;;;11.60;99.90;;;;;;4994309;28;20058;-65
2023/01/12 04:26:21;;;;;;;21.38;2.97;;;11.70;99.90;;;;;;4995359;28;20034;-64
2023/01/12 04:28:47;;;;;;;14.25;3.35;;;12.30;99.90;;;;;;4992191;28;20476;-64
2023/01/12 04:31:13;;;;;;;19.73;4.15;;;11.80;99.90;;;;;;4991285;28;20046;-65
2023/01/12 04:33:38;;;;;;;14.80;3.47;;;11.50;99.90;;;;;;4976282;28;20130;-65
2023/01/12 04:36:04;;;;;;;19.27;3.45;;;12.20;99.90;;;;;;4976239;28;20046;-64
2023/01/12 04:38:30;;;;;;;18.02;4.05;;;11.20;1.00;;;;;;4981614;28;20084;-64
2023/01/12 04:40:55;;;;;;;15.95;2.95;;;12.20;1.00;;;;;;4994203;28;20132;-64
2023/01/12 04:43:21;;;;;;;10.85;3.05;;;11.50;1.00;;;;;;4994124;28;20385;-65
2023/01/12 04:45:46;;;;;;;12.52;3.10;;;12.30;99.90;;;;;;4995589;28;20045;-65
2023/01/12 04:48:14;;;;;;;12.07;2.97;;;11.30;99.90;;;;;;4995632;28;20141;-65
2023/01/12 04:50:40;;;;;;;22.98;3.92;;;11.40;1.00;;;;;;4994211;28;20050;-65
2023/01/12 04:53:08;;;;;;;13.60;3.35;;;11.10;1.00;;;;;;4994022;28;20408;-65
2023/01/12 04:55:39;;;;;;;14.02;3.35;;;11.30;1.00;;;;;;4995075;28;20046;-65
2023/01/12 04:58:05;;;;;;;12.00;3.45;;;13.00;13.80;;;;;;4987282;28;20042;-65
2023/01/12 05:00:31;;;;;;;10.45;2.85;;;11.60;98.60;;;;;;4993044;28;20042;-65
2023/01/12 05:02:59;;;;;;;8.98;2.92;;;10.70;99.90;;;;;;4993626;28;20047;-64
2023/01/12 05:05:25;;;;;;;7.70;2.92;;;12.90;99.90;;;;;;4993832;28;20054;-65
2023/01/12 05:10:35;;;;;;;8.27;2.38;;;10.80;29.00;;;;;;4995180;28;20486;-65
2023/01/12 05:13:00;;;;;;;9.70;2.70;;;13.50;99.90;;;;;;4994816;28;20054;-65
2023/01/12 05:15:26;;;;;;;7.97;2.38;;;11.80;1.00;;;;;;4995107;28;20125;-65
2023/01/12 05:17:53;;;;;;;6.95;2.35;;;13.70;99.90;;;;;;4994691;28;20046;-64
2023/01/12 05:20:20;;;;;;;4.13;2.10;;;13.60;99.90;;;;;;4994959;28;20464;-65
2023/01/12 05:22:47;;;;;;;4.47;2.00;;;13.00;1.00;;;;;;4993631;28;20092;-65
2023/01/12 05:25:14;;;;;;;5.55;1.52;;;10.80;99.90;;;;;;4994947;28;20302;-64
2023/01/12 05:27:39;;;;;;;4.60;1.90;;;12.00;99.90;;;;;;4994433;28;20041;-65
2023/01/12 05:30:06;;;;;;;5.78;1.95;;;11.70;1.00;;;;;;4994022;28;20389;-65
2023/01/12 05:32:40;;;;;;;4.93;1.90;;;13.80;57.50;;;;;;4994530;28;20046;-65
2023/01/12 05:35:06;;;;;;;2.80;1.65;;;11.10;99.90;;;;;;4993648;28;20039;-65
2023/01/12 05:37:32;;;;;;;4.50;1.60;;;13.10;1.00;;;;;;4994685;28;20488;-65
2023/01/12 05:39:58;;;;;;;11.40;2.20;;;10.70;99.90;;;;;;4994272;28;20030;-65
2023/01/12 05:45:09;;;;;;;11.50;3.17;;;10.70;99.90;;;;;;4993685;28;20077;-65
2023/01/12 05:47:35;;;;;;;22.80;3.95;;;13.30;99.90;;;;;;4993105;28;20050;-65
2023/01/12 05:50:00;;;;;;;35.20;6.43;;;11.60;74.50;;;;;;4992858;28;20046;-66
2023/01/12 05:52:26;;;;;;;47.60;6.95;;;11.50;1.00;;;;;;4975034;28;20416;-66
2023/01/12 05:54:51;;;;;;;57.38;9.25;;;14.30;48.70;;;;;;4973335;28;20166;-66
2023/01/12 05:57:17;;;;;;;40.72;8.05;;;11.60;99.90;;;;;;4987842;28;20030;-65
2023/01/12 05:59:43;;;;;;;72.45;11.85;;;11.40;99.90;;;;;;4985365;28;20097;-66
2023/01/12 06:02:12;;;;;;;63.05;11.20;;;12.20;99.90;;;;;;4969736;28;20035;-66
2023/01/12 06:04:38;;;;;;;60.80;8.98;;;12.10;99.90;;;;;;4986523;28;20059;-66
2023/01/12 06:07:04;;;;;;;54.63;8.48;;;12.30;91.20;;;;;;4982463;28;20046;-66
2023/01/12 06:09:30;;;;;;;40.63;8.18;;;14.10;2.30;;;;;;4974406;28;20230;-66
2023/01/12 06:14:40;;;;;;;52.83;8.32;;;11.60;1.00;;;;;;4993236;28;20057;-66
2023/01/12 06:17:05;;;;;;;50.75;7.53;;;12.40;1.00;;;;;;4993419;28;20372;-65
2023/01/12 06:19:31;;;;;;;70.35;10.05;;;14.20;99.90;;;;;;4993900;28;20389;-66
2023/01/12 06:21:58;;;;;;;65.38;9.70;;;11.80;99.90;;;;;;4993809;28;20400;-66
2023/01/12 06:24:26;;;;;;;61.92;9.10;;;13.70;99.90;;;;;;4993368;28;20046;-66
2023/01/12 06:26:53;;;;;;;72.30;12.40;;;13.60;99.90;;;;;;4993461;28;20034;-66
2023/01/12 06:29:19;;;;;;;47.30;8.20;;;14.20;1.00;;;;;;4991877;28;20125;-66
2023/01/12 06:31:45;;;;;;;39.97;7.20;;;13.50;99.90;;;;;;4993462;28;20118;-66
2023/01/12 06:34:11;;;;;;;52.53;7.95;;;15.10;99.90;;;;;;4993562;28;20468;-66
2023/01/12 06:36:37;;;;;;;59.42;8.98;;;14.80;99.90;;;;;;4993515;28;20377;-66
2023/01/12 06:39:02;;;;;;;52.28;8.32;;;11.60;99.90;;;;;;4993016;28;20113;-66
2023/01/12 06:44:12;;;;;;;62.58;9.23;;;11.50;99.90;;;;;;4993008;28;20077;-66
2023/01/12 06:46:37;;;;;;;35.55;6.50;;;12.90;99.90;;;;;;4991556;28;20073;-66
2023/01/12 06:49:03;;;;;;;52.20;8.07;;;15.20;1.00;;;;;;4993244;28;20125;-66
2023/01/12 06:51:29;;;;;;;41.38;7.00;;;12.20;1.00;;;;;;4993282;28;20045;-66
2023/01/12 06:53:54;;;;;;;39.53;6.85;;;14.90;99.90;;;;;;4991675;28;20393;-66
2023/01/12 06:56:20;;;;;;;52.20;8.40;;;15.20;1.00;;;;;;4992713;28;20034;-66
2023/01/12 06:58:46;;;;;;;53.03;8.07;;;13.90;1.00;;;;;;4992882;28;20042;-66
2023/01/12 07:01:12;;;;;;;45.53;8.23;;;13.20;1.00;;;;;;4991292;28;20472;-66
2023/01/12 07:03:38;;;;;;;40.60;6.95;;;13.40;1.00;;;;;;4992800;28;20061;-67
2023/01/12 07:06:04;;;;;;;38.22;7.65;;;13.20;1.00;;;;;;4991624;28;20050;-67
2023/01/12 07:08:31;;;;;;;39.40;7.45;;;12.00;1.00;;;;;;4991527;28;20053;-67
2023/01/12 07:11:02;;;;;;;48.65;7.88;;;12.10;1.00;;;;;;4992605;28;20149;-67
2023/01/12 07:13:28;;;;;;;33.85;6.60;;;12.30;1.00;;;;;;4992683;28;20504;-66
2023/01/12 07:15:56;;;;;;;45.08;8.13;;;14.90;1.00;;;;;;4977377;28;20034;-66
2023/01/12 07:18:21;;;;;;;52.13;8.18;;;15.00;1.00;;;;;;4981304;28;20042;-66
2023/01/12 07:20:47;;;;;;;51.58;8.20;;;15.50;1.00;;;;;;4991315;28;20046;-66
2023/01/12 07:23:13;;;;;;;44.05;7.18;;;11.70;1.00;;;;;;4990555;28;20033;-66
2023/01/12 07:25:38;;;;;;;46.88;8.75;;;11.90;1.00;;;;;;4980128;28;20050;-66
2023/01/12 07:28:04;;;;;;;50.00;7.80;;;11.80;1.00;;;;;;4991773;28;20040;-66
2023/01/12 07:30:30;;;;;;;38.80;7.43;;;14.50;1.00;;;;;;4992374;28;20428;-66
2023/01/12 07:33:08;;;;;;;40.85;8.25;;;12.00;1.00;;;;;;4992675;28;20053;-66
2023/01/12 07:35:33;;;;;;;46.30;8.55;;;14.00;7.90;;;;;;4992305;28;20046;-66
2023/01/12 07:37:59;;;;;;;42.13;7.90;;;15.90;1.00;;;;;;4992069;28;20042;-66
2023/01/12 07:40:24;;;;;;;52.47;7.82;;;15.80;1.00;;;;;;4985117;28;20042;-66
2023/01/12 07:43:00;;;;;;;50.05;8.27;;;16.00;7.10;;;;;;4971507;28;20452;-66
2023/01/12 07:45:27;;;;;;;49.10;8.88;;;14.90;3.90;;;;;;4972976;28;20412;-66
2023/01/12 07:47:53;;;;;;;34.50;6.78;;;15.10;92.80;;;;;;4971780;28;20498;-66
2023/01/12 07:50:21;;;;;;;46.80;7.72;;;12.60;99.90;;;;;;4982158;28;20373;-66
2023/01/12 07:52:46;;;;;;;43.63;7.85;;;12.20;99.90;;;;;;4991829;28;20076;-66
2023/01/12 07:55:12;;;;;;;45.83;7.45;;;15.60;99.90;;;;;;4991854;28;20066;-66
2023/01/12 07:57:38;;;;;;;42.33;6.93;;;12.10;30.40;;;;;;4992544;28;20046;-66
2023/01/12 08:00:05;;;;;;;49.22;7.28;;;15.90;1.00;;;;;;4991813;28;20122;-66
2023/01/12 08:02:30;;;;;;;46.40;7.30;;;15.50;1.00;;;;;;4991833;28;20050;-66
2023/01/12 08:04:56;;;;;;;54.00;9.23;;;12.80;1.00;;;;;;4986369;28;20042;-66
2023/01/12 08:07:22;;;;;;;54.00;8.65;;;12.90;1.00;;;;;;4986628;28;20485;-66
2023/01/12 08:09:47;;;;;;;47.05;7.72;;;15.80;1.00;;;;;;4992025;28;20428;-66
2023/01/12 08:12:13;;;;;;;44.50;6.47;;;15.80;99.90;;;;;;4991859;28;20047;-66
2023/01/12 08:14:40;;;;;;;46.63;8.02;;;15.20;99.90;;;;;;4990940;28;20669;-65
2023/01/12 08:17:12;;;;;;;40.92;7.18;;;15.80;99.90;;;;;;4973602;28;20473;-66
2023/01/12 08:19:48;;;;;;;47.28;7.68;;;15.10;99.90;;;;;;4986263;28;20046;-66
2023/01/12 08:22:19;;;;;;;41.05;7.75;;;14.50;99.90;;;;;;4984892;28;20492;-66
2023/01/12 08:24:53;;;;;;;57.92;9.07;;;15.40;99.90;;;;;;4988035;28;20042;-66
2023/01/12 08:27:23;;;;;;;59.25;8.23;;;15.30;99.90;;;;;;4988005;28;20129;-66
2023/01/12 08:29:53;;;;;;;48.47;8.57;;;15.30;1.00;;;;;;4981411;28;20046;-66
2023/01/12 08:32:19;;;;;;;61.55;8.50;;;12.00;99.90;;;;;;4981119;28;20042;-66
2023/01/12 08:34:49;;;;;;;59.72;7.82;;;11.80;89.10;;;;;;4978299;28;20042;-66
2023/01/12 08:37:17;;;;;;;50.03;8.43;;;15.60;99.90;;;;;;4991555;28;20038;-66
2023/01/12 08:39:44;;;;;;;50.95;8.38;;;15.20;8.50;;;;;;5004115;28;20047;-66
2023/01/12 08:42:09;;;;;;;37.85;6.97;;;11.90;43.30;;;;;;4991793;28;20173;-66
2023/01/12 08:44:35;;;;;;;48.92;7.72;;;15.50;99.90;;;;;;4990793;28;20539;-66
2023/01/12 08:47:02;;;;;;;46.45;7.63;;;11.80;99.90;;;;;;4991538;28;20045;-66
2023/01/12 08:49:29;;;;;;;29.50;6.65;;;15.70;99.90;;;;;;4991333;28;20062;-67
2023/01/12 08:51:55;;;;;;;48.33;7.90;;;13.00;99.90;;;;;;4991256;28;20165;-66
2023/01/12 08:54:21;;;;;;;54.65;8.10;;;12.20;99.90;;;;;;4991266;28;20046;-66
2023/01/12 08:56:48;;;;;;;37.22;6.95;;;12.00;99.90;;;;;;4986540;28;20034;-66
2023/01/12 08:59:15;;;;;;;52.70;8.35;;;15.50;99.90;;;;;;4971392;28;20042;-66
2023/01/12 09:01:41;;;;;;;34.92;6.40;;;16.00;99.90;;;;;;4983078;28;20030;-66
2023/01/12 09:04:07;;;;;;;44.08;7.30;;;15.60;99.90;;;;;;4984903;28;20069;-66
2023/01/12 09:06:41;;;;;;;49.85;8.32;;;13.50;99.90;;;;;;4981959;28;20073;-66
2023/01/12 09:09:09;;;;;;;47.97;7.18;;;15.90;99.90;;;;;;4995108;28;20034;-66
2023/01/12 09:11:36;;;;;;;52.35;8.07;;;12.20;48.20;;;;;;4988919;28;20080;-67
2023/01/12 09:14:02;;;;;;;47.58;7.55;;;14.30;26.30;;;;;;4993867;28;20038;-66
2023/01/12 09:16:29;;;;;;;44.20;8.07;;;14.40;20.90;;;;;;4993703;28;20030;-66
2023/01/12 09:18:55;;;;;;;55.38;7.47;;;15.40;98.50;;;;;;4995482;28;20046;-66
2023/01/12 09:21:23;;;;;;;39.92;6.88;;;14.90;99.90;;;;;;4993930;28;20125;-66
2023/01/12 09:23:49;;;;;;;49.45;7.47;;;13.10;99.90;;;;;;4995019;28;20046;-66
2023/01/12 09:26:20;;;;;;;45.95;7.13;;;16.00;99.90;;;;;;4994716;28;20412;-66
2023/01/12 09:28:46;;;;;;;48.85;7.90;;;12.40;99.90;;;;;;4990967;28;20045;-66
2023/01/12 09:31:17;;;;;;;45.63;7.03;;;15.50;99.90;;;;;;4994053;28;20038;-66
2023/01/12 09:33:43;;;;;;;48.83;7.53;;;13.00;99.90;;;;;;4987394;28;20057;-66
2023/01/12 09:36:14;;;;;;;37.75;6.57;;;15.70;99.90;;;;;;4985697;28;20042;-66
2023/01/12 09:38:41;;;;;;;45.72;7.28;;;12.70;99.90;;;;;;5008826;28;20051;-66
2023/01/12 09:41:10;;;;;;;54.92;8.27;;;16.50;99.90;;;;;;4994620;28;20038;-65
2023/01/12 09:49:27;;;;;;;49.83;8.50;;;14.00;1.00;;;;;;4993849;28;20041;-65
2023/01/12 09:52:16;;;;;;;45.40;7.90;;;13.60;1.00;;;;;;4982663;28;20046;-65
2023/01/12 09:54:43;;;;;;;38.88;6.25;;;13.40;1.00;;;;;;4992335;28;20047;-65
2023/01/12 09:57:39;;;;;;;47.40;6.85;;;13.10;99.90;;;;;;4994366;28;20117;-65
2023/01/12 10:00:17;;;;;;;51.33;8.85;;;12.90;99.90;;;;;;4982324;28;20042;-65
2023/01/12 10:02:53;;;;;;;39.85;6.88;;;12.80;1.00;;;;;;4988380;28;20121;-65
2023/01/12 10:05:36;;;;;;;;;;;15.20;1.00;;;;;;4994239;28;20069;-65
2023/01/12 10:08:03;;;;;;;46.03;6.63;;;12.70;99.90;;;;;;4993937;28;20364;-65
2023/01/12 10:10:28;;;;;;;52.20;7.72;;;12.60;99.90;;;;;;4989512;28;20099;-65
2023/01/12 10:12:59;;;;;;;45.35;7.45;;;15.00;99.90;;;;;;4984063;28;20447;-65
2023/01/12 10:15:34;;;;;;;41.20;7.57;;;13.30;70.00;;;;;;4977944;28;20038;-65
2023/01/12 10:18:45;;;;;;;45.85;7.03;;;13.90;1.00;;;;;;4992173;28;20042;-65
2023/01/12 10:21:10;;;;;;;36.95;5.20;;;15.40;1.00;;;;;;4981456;28;20500;-66
2023/01/12 10:23:36;;;;;;;44.10;6.88;;;15.30;1.00;;;;;;4983751;28;20047;-65
2023/01/12 10:26:20;;;;;;;33.08;6.38;;;15.40;99.90;;;;;;4994180;28;20040;-65
2023/01/12 10:28:47;;;;;;;39.38;7.40;;;13.10;99.90;;;;;;4993807;28;20061;-66
2023/01/12 10:31:18;;;;;;;52.05;7.63;;;13.10;99.90;;;;;;4993424;28;20031;-66
2023/01/12 10:34:05;;;;;;;40.90;6.93;;;14.10;29.90;;;;;;4992924;28;20046;-66
2023/01/12 10:36:33;;;;;;;45.35;6.88;;;14.10;28.70;;;;;;4994368;28;20085;-66
2023/01/12 10:39:03;;;;;;;45.38;6.90;;;14.80;1.00;;;;;;4993752;28;20462;-66
2023/01/12 10:41:31;;;;;;;35.17;6.20;;;13.80;99.90;;;;;;4993440;28;20038;-66
2023/01/12 10:43:59;;;;;;;28.75;6.00;;;14.60;99.90;;;;;;4992027;28;20052;-66
2023/01/12 10:46:28;;;;;;;44.88;6.88;;;12.10;99.90;;;;;;4992931;28;20492;-66
2023/01/12 10:49:20;;;;;;;42.25;7.15;;;14.70;99.90;;;;;;4993516;28;20121;-66
2023/01/12 10:51:56;;;;;;;52.90;8.02;;;13.90;24.90;;;;;;4993550;28;20092;-66
2023/01/12 10:54:26;;;;;;;42.13;6.88;;;13.90;21.40;;;;;;4993622;28;20088;-66
2023/01/12 10:56:54;;;;;;;54.55;7.63;;;14.80;1.00;;;;;;4981578;28;20042;-66
2023/01/12 10:59:23;;;;;;;51.15;7.90;;;14.10;15.80;;;;;;4980715;28;20555;-66
2023/01/12 11:02:10;;;;;;;43.22;6.68;;;14.90;1.00;;;;;;4993285;28;20057;-66
2023/01/12 11:04:42;;;;;;;32.80;6.60;;;14.20;1.00;;;;;;4993388;28;20069;-66
2023/01/12 11:07:29;;;;;;;42.90;6.22;;;15.20;1.00;;;;;;4992399;28;20042;-66
2023/01/12 11:10:15;;;;;;;43.95;6.43;;;14.50;99.90;;;;;;4992229;28;20038;-66
2023/01/12 11:12:41;;;;;;;36.03;6.40;;;14.50;99.90;;;;;;4991165;28;20113;-66
2023/01/12 11:15:17;;;;;;;38.13;6.03;;;14.50;99.90;;;;;;4992249;28;20038;-67
2023/01/12 11:18:06;;;;;;;53.83;8.15;;;15.20;99.90;;;;;;4992359;28;20038;-67
2023/01/12 11:20:49;;;;;;;40.38;6.55;;;14.80;99.90;;;;;;4993436;28;20539;-67
2023/01/12 11:23:39;;;;;;;34.25;6.07;;;15.10;52.30;;;;;;4975668;28;20038;-67
2023/01/12 11:26:17;;;;;;;41.78;6.50;;;15.30;1.00;;;;;;4991065;28;20117;-66
2023/01/12 11:28:48;;;;;;;30.55;5.60;;;15.50;99.90;;;;;;4975460;28;20450;-67
2023/01/12 11:31:21;;;;;;;35.15;6.13;;;15.30;99.90;;;;;;4993214;28;20496;-67
2023/01/12 11:34:00;;;;;;;38.30;5.82;;;15.60;99.90;;;;;;4991499;28;20223;-67
2023/01/12 11:36:40;;;;;;;33.22;5.88;;;15.40;59.50;;;;;;4992021;28;20065;-67
2023/01/12 11:39:12;;;;;;;34.00;5.97;;;15.20;11.90;;;;;;4981507;28;20047;-67
2023/01/12 11:44:47;;;;;;;39.50;5.25;;;15.30;1.00;;;;;;4991796;28;20149;-67
2023/01/12 11:47:19;;;;;;;34.75;5.80;;;15.10;1.00;;;;;;4992574;28;20042;-67
2023/01/12 11:49:54;;;;;;;38.33;6.50;;;15.70;99.90;;;;;;4993204;28;20412;-67
2023/01/12 11:52:19;;;;;;;40.00;5.80;;;15.30;99.90;;;;;;4992534;28;20112;-67
2023/01/12 11:54:45;;;;;;;37.83;6.35;;;15.70;99.90;;;;;;4992438;28;20042;-66
2023/01/12 11:57:34;;;;;;;39.33;6.05;;;14.80;1.00;;;;;;4992975;28;20128;-67
2023/01/12 12:00:03;;;;;;;37.90;5.93;;;14.80;99.90;;;;;;4973463;28;20046;-67
2023/01/12 12:02:50;;;;;;;41.22;6.28;;;14.90;99.90;;;;;;4977717;28;20495;-67
2023/01/12 12:05:37;;;;;;;39.05;6.47;;;14.60;80.10;;;;;;4992346;28;20496;-67
2023/01/12 12:08:07;;;;;;;42.20;7.13;;;14.90;1.00;;;;;;4989949;28;20069;-67
2023/01/12 12:10:39;;;;;;;48.40;7.10;;;14.40;11.30;;;;;;4992629;28;20120;-67
2023/01/12 12:13:25;;;;;;;51.13;7.97;;;14.30;1.00;;;;;;4992369;28;20515;-67
2023/01/12 12:16:12;;;;;;;45.65;7.45;;;14.20;1.00;;;;;;4989131;28;20089;-67
2023/01/12 12:18:41;;;;;;;58.72;7.60;;;14.30;1.00;;;;;;4999953;28;20057;-67
2023/01/12 12:21:47;;;;;;;37.08;7.13;;;14.80;1.00;;;;;;4965244;28;20043;-67
2023/01/12 12:24:22;;;;;;;37.08;6.43;;;14.40;99.90;;;;;;4982070;28;20034;-66
2023/01/12 12:27:02;;;;;;;44.13;7.38;;;14.30;1.00;;;;;;4973154;28;20046;-67
2023/01/12 12:29:47;;;;;;;43.50;6.85;;;14.20;99.90;;;;;;4983414;28;20089;-67
2023/01/12 12:32:29;;;;;;;44.40;7.05;;;14.10;1.00;;;;;;4998872;28;20088;-67
2023/01/12 12:35:13;;;;;;;30.45;5.55;;;14.30;99.90;;;;;;4991955;28;20042;-67
2023/01/12 12:38:13;;;;;;;42.13;7.28;;;14.00;99.90;;;;;;4970144;28;20057;-67
2023/01/12 12:47:43;;;;;;;44.17;7.85;;;14.50;99.90;;;;;;4984648;28;20054;-68
2023/01/12 12:50:23;;;;;;;39.67;6.43;;;14.00;99.90;;;;;;4989312;28;20115;-67
2023/01/12 12:53:03;;;;;;;45.25;7.32;;;13.90;99.90;;;;;;4995280;28;20518;-67
2023/01/12 12:55:29;;;;;;;49.25;7.47;;;14.50;99.90;;;;;;4987945;28;20101;-67
2023/01/12 12:58:01;;;;;;;41.10;6.28;;;14.60;99.90;;;;;;4995810;28;20536;-67
2023/01/12 13:00:41;;;;;;;37.90;7.10;;;14.10;99.90;;;;;;4995737;28;20038;-67
2023/01/12 13:03:07;;;;;;;44.78;7.13;;;14.10;99.90;;;;;;4994085;28;20121;-67
2023/01/12 13:05:46;;;;;;;35.08;5.95;;;14.60;99.90;;;;;;4995817;28;20047;-67
2023/01/12 13:08:24;;;;;;;43.55;6.85;;;14.10;99.90;;;;;;4995750;28;20061;-67
2023/01/12 13:10:53;;;;;;;42.05;7.65;;;14.10;1.00;;;;;;4989041;28;20038;-67
2023/01/12 13:13:31;;;;;;;42.47;7.07;;;14.70;1.00;;;;;;4995053;28;20094;-67
2023/01/12 13:16:20;;;;;;;53.17;8.63;;;14.30;1.00;;;;;;4997250;28;20111;-67
2023/01/12 13:18:52;;;;;;;52.33;8.43;;;14.60;1.00;;;;;;4979752;28;20557;-67
2023/01/12 13:21:41;;;;;;;51.28;7.93;;;14.20;1.00;;;;;;4994804;28;20117;-68
2023/01/12 13:24:12;;;;;;;42.88;7.78;;;14.90;29.60;;;;;;4995334;28;20038;-68
2023/01/12 13:26:42;;;;;;;45.28;7.38;;;14.50;99.90;;;;;;4995142;28;20064;-67
2023/01/12 13:29:26;;;;;;;54.30;7.72;;;14.80;99.90;;;;;;4989907;28;20093;-67
2023/01/12 13:32:19;;;;;;;45.85;6.90;;;14.40;99.90;;;;;;5001190;28;20045;-67
2023/01/12 13:34:47;;;;;;;59.90;8.15;;;15.00;1.00;;;;;;4995033;28;20043;-67
2023/01/12 13:37:33;;;;;;;48.95;7.22;;;15.50;99.90;;;;;;4994937;28;20046;-67
2023/01/12 13:40:15;;;;;;;51.10;8.00;;;15.00;99.90;;;;;;4995054;28;20496;-67
2023/01/12 13:45:28;;;;;;;;;;;15.60;99.90;;;;;;4995328;28;20133;-67